createdAt,value
2022-12-17T00:00:01.777Z,100.00
2022-12-17T00:02:49.928Z,100.00
2022-12-17T00:05:35.359Z,100.00
2022-12-17T00:08:20.979Z,100.00
2022-12-17T00:11:06.449Z,100.00
2022-12-17T00:13:52.166Z,100.00
2022-12-17T00:16:37.991Z,100.00
2022-12-17T00:19:23.544Z,100.00
2022-12-17T00:22:09.740Z,100.00
2022-12-17T00:24:56.401Z,100.00
2022-12-17T00:27:41.982Z,100.00
2022-12-17T00:30:31.737Z,100.00
2022-12-17T00:33:17.416Z,100.00
2022-12-17T00:36:02.853Z,100.00
2022-12-17T00:38:48.658Z,100.00
2022-12-17T00:41:34.125Z,100.00
2022-12-17T00:44:19.621Z,100.00
2022-12-17T00:47:05.482Z,100.00
2022-12-17T00:49:51.909Z,100.00
2022-12-17T00:52:37.602Z,100.00
2022-12-17T00:55:23.601Z,100.00
2022-12-17T00:58:12.661Z,100.00
2022-12-17T01:00:58.008Z,100.00
2022-12-17T01:03:43.580Z,100.00
2022-12-17T01:06:29.204Z,100.00
2022-12-17T01:09:14.993Z,100.00
2022-12-17T01:12:00.718Z,100.00
2022-12-17T01:14:46.373Z,100.00
2022-12-17T01:17:31.905Z,100.00
2022-12-17T01:20:22.002Z,100.00
2022-12-17T01:23:08.463Z,100.00
2022-12-17T01:25:53.911Z,100.00
2022-12-17T01:28:42.752Z,100.00
2022-12-17T01:31:34.277Z,100.00
2022-12-17T01:34:20.989Z,100.00
2022-12-17T01:37:06.675Z,100.00
2022-12-17T01:39:52.264Z,100.00
2022-12-17T01:42:37.947Z,100.00
2022-12-17T01:45:23.963Z,100.00
2022-12-17T01:48:14.715Z,100.00
2022-12-17T01:51:02.427Z,100.00
2022-12-17T01:53:49.565Z,100.00
2022-12-17T01:56:35.812Z,100.00
2022-12-17T01:59:22.005Z,100.00
2022-12-17T02:02:07.803Z,100.00
2022-12-17T02:04:53.748Z,100.00
2022-12-17T02:07:48.046Z,100.00
2022-12-17T02:10:48.695Z,99.53
2022-12-17T02:13:37.255Z,99.73
2022-12-17T02:20:38.068Z,100.00
2022-12-17T02:23:23.590Z,100.00
2022-12-17T02:26:12.094Z,100.00
2022-12-17T02:29:01.166Z,100.00
2022-12-17T02:31:48.237Z,100.00
2022-12-17T02:34:33.909Z,100.00
2022-12-17T02:37:19.538Z,100.00
2022-12-17T02:40:05.241Z,100.00
2022-12-17T02:42:52.879Z,100.00
2022-12-17T02:45:38.715Z,100.00
2022-12-17T02:48:26.187Z,100.00
2022-12-17T02:51:11.878Z,100.00
2022-12-17T02:54:04.711Z,100.00
2022-12-17T02:56:51.218Z,100.00
2022-12-17T02:59:36.878Z,100.00
2022-12-17T03:02:29.894Z,100.00
2022-12-17T03:05:43.273Z,100.00
2022-12-17T03:08:20.711Z,100.00
2022-12-17T03:11:06.195Z,100.00
2022-12-17T03:13:51.687Z,100.00
2022-12-17T03:16:40.357Z,100.00
2022-12-17T03:19:27.636Z,100.00
2022-12-17T03:22:14.198Z,100.00
2022-12-17T03:24:59.665Z,100.00
2022-12-17T03:27:45.227Z,100.00
2022-12-17T03:30:35.556Z,100.00
2022-12-17T03:33:21.728Z,100.00
2022-12-17T03:36:07.086Z,100.00
2022-12-17T03:38:52.777Z,100.00
2022-12-17T03:41:38.400Z,100.00
2022-12-17T03:44:24.034Z,100.00
2022-12-17T03:47:09.613Z,100.00
2022-12-17T03:49:55.365Z,100.00
2022-12-17T03:52:41.008Z,99.78
2022-12-17T03:55:26.586Z,99.63
2022-12-17T03:58:25.862Z,100.00
2022-12-17T04:01:13.071Z,100.00
2022-12-17T04:03:58.805Z,100.00
2022-12-17T04:06:44.482Z,100.00
2022-12-17T04:09:30.251Z,100.00
2022-12-17T04:12:16.067Z,100.00
2022-12-17T04:15:01.613Z,100.00
2022-12-17T04:17:47.316Z,100.00
2022-12-17T04:20:32.791Z,100.00
2022-12-17T04:23:18.458Z,100.00
2022-12-17T04:26:03.868Z,100.00
2022-12-17T04:28:49.417Z,100.00
2022-12-17T04:31:35.163Z,100.00
2022-12-17T04:34:20.697Z,100.00
2022-12-17T04:37:06.229Z,100.00
2022-12-17T04:39:51.836Z,100.00
2022-12-17T04:42:37.832Z,100.00
2022-12-17T04:45:23.489Z,100.00
2022-12-17T04:48:09.012Z,100.00
2022-12-17T04:50:54.294Z,100.00
2022-12-17T04:53:39.983Z,100.00
2022-12-17T04:56:25.544Z,99.98
2022-12-17T04:59:11.147Z,100.00
2022-12-17T05:01:56.810Z,100.00
2022-12-17T05:04:42.264Z,100.00
2022-12-17T05:07:27.950Z,100.00
2022-12-17T05:10:13.426Z,100.00
2022-12-17T05:12:59.185Z,100.00
2022-12-17T05:15:49.751Z,100.00
2022-12-17T05:18:38.489Z,100.00
2022-12-17T05:21:23.902Z,100.00
2022-12-17T05:24:09.609Z,100.00
2022-12-17T05:26:55.096Z,100.00
2022-12-17T05:29:42.733Z,100.00
2022-12-17T05:32:28.542Z,100.00
2022-12-17T05:35:13.965Z,100.00
2022-12-17T05:37:59.671Z,100.00
2022-12-17T05:40:45.229Z,100.00
2022-12-17T05:43:31.599Z,100.00
2022-12-17T05:46:17.258Z,100.00
2022-12-17T05:49:02.778Z,100.00
2022-12-17T05:51:48.450Z,100.00
2022-12-17T05:54:34.052Z,100.00
2022-12-17T05:57:19.677Z,100.00
2022-12-17T06:00:05.297Z,100.00
2022-12-17T06:02:57.964Z,100.00
2022-12-17T06:05:43.718Z,100.00
2022-12-17T06:08:29.042Z,99.88
2022-12-17T06:11:16.805Z,99.53
2022-12-17T06:14:02.328Z,99.13
2022-12-17T06:16:47.951Z,100.00
2022-12-17T06:19:33.459Z,100.00
2022-12-17T06:22:19.703Z,100.00
2022-12-17T06:25:05.547Z,100.00
2022-12-17T06:27:50.881Z,99.78
2022-12-17T06:30:36.513Z,99.39
2022-12-17T06:33:25.744Z,98.38
2022-12-17T06:36:18.097Z,98.90
2022-12-17T06:39:07.292Z,99.30
2022-12-17T06:41:52.708Z,99.69
2022-12-17T06:44:38.431Z,98.40
2022-12-17T06:47:24.033Z,98.00
2022-12-17T06:50:09.680Z,98.17
2022-12-17T06:52:55.230Z,97.14
2022-12-17T06:55:40.779Z,98.32
2022-12-17T06:58:27.237Z,97.79
2022-12-17T07:01:12.907Z,97.79
2022-12-17T07:03:58.305Z,97.30
2022-12-17T07:06:44.117Z,97.41
2022-12-17T07:09:29.719Z,96.87
2022-12-17T07:12:15.470Z,97.43
2022-12-17T07:15:00.818Z,96.76
2022-12-17T07:17:46.431Z,97.16
2022-12-17T07:20:32.085Z,96.83
2022-12-17T07:23:17.892Z,96.16
2022-12-17T07:26:03.278Z,96.47
2022-12-17T07:28:48.857Z,95.93
2022-12-17T07:31:34.630Z,95.70
2022-12-17T07:34:20.171Z,96.12
2022-12-17T07:37:05.776Z,96.02
2022-12-17T07:39:51.624Z,95.52
2022-12-17T07:42:37.249Z,95.28
2022-12-17T07:45:22.973Z,95.42
2022-12-17T07:48:12.157Z,95.11
2022-12-17T07:50:57.413Z,94.65
2022-12-17T07:53:43.015Z,95.91
2022-12-17T07:56:28.660Z,97.18
2022-12-17T07:59:14.206Z,98.93
2022-12-17T08:01:59.981Z,100.00
2022-12-17T08:04:45.335Z,100.00
2022-12-17T08:07:30.902Z,100.00
2022-12-17T08:10:16.511Z,100.00
2022-12-17T08:13:14.214Z,100.00
2022-12-17T08:16:00.246Z,100.00
2022-12-17T08:18:45.832Z,100.00
2022-12-17T08:21:31.494Z,100.00
2022-12-17T08:24:17.092Z,100.00
2022-12-17T08:27:02.643Z,100.00
2022-12-17T08:29:48.129Z,100.00
2022-12-17T08:32:33.608Z,100.00
2022-12-17T08:35:19.240Z,100.00
2022-12-17T08:38:04.920Z,100.00
2022-12-17T08:40:50.501Z,100.00
2022-12-17T08:43:36.429Z,100.00
2022-12-17T08:46:22.092Z,100.00
2022-12-17T08:49:07.841Z,100.00
2022-12-17T08:51:53.314Z,100.00
2022-12-17T08:54:38.995Z,100.00
2022-12-17T08:57:32.022Z,100.00
2022-12-17T09:00:17.630Z,100.00
2022-12-17T09:03:03.234Z,100.00
2022-12-17T09:05:48.673Z,99.50
2022-12-17T09:08:34.173Z,98.61
2022-12-17T09:11:19.833Z,99.08
2022-12-17T09:14:05.495Z,99.32
2022-12-17T09:16:51.248Z,100.00
2022-12-17T09:19:36.717Z,100.00
2022-12-17T09:22:22.353Z,98.80
2022-12-17T09:25:07.779Z,99.62
2022-12-17T09:27:53.499Z,99.03
2022-12-17T09:30:39.066Z,97.55
2022-12-17T09:33:24.507Z,97.21
2022-12-17T09:36:10.202Z,96.47
2022-12-17T09:38:55.867Z,96.80
2022-12-17T09:41:51.510Z,97.86
2022-12-17T09:44:53.217Z,99.06
2022-12-17T09:47:38.899Z,97.78
2022-12-17T09:50:30.806Z,95.36
2022-12-17T09:53:17.422Z,96.35
2022-12-17T09:56:05.702Z,95.68
2022-12-17T09:58:53.899Z,95.89
2022-12-17T10:01:39.755Z,96.08
2022-12-17T10:04:29.707Z,95.20
2022-12-17T10:07:15.297Z,95.05
2022-12-17T10:10:00.824Z,94.21
2022-12-17T10:12:46.424Z,93.26
2022-12-17T10:15:33.245Z,94.81
2022-12-17T10:18:26.262Z,95.64
2022-12-17T10:21:20.020Z,95.17
2022-12-17T10:24:05.882Z,95.07
2022-12-17T10:26:52.345Z,95.51
2022-12-17T10:29:45.474Z,94.47
2022-12-17T10:32:32.594Z,92.98
2022-12-17T10:35:18.296Z,92.73
2022-12-17T10:38:03.794Z,94.41
2022-12-17T10:40:51.499Z,92.79
2022-12-17T10:43:50.253Z,93.08
2022-12-17T10:46:46.549Z,92.65
2022-12-17T10:49:42.535Z,92.80
2022-12-17T10:52:57.613Z,92.11
2022-12-17T10:55:45.498Z,92.94
2022-12-17T10:58:35.398Z,93.08
2022-12-17T11:01:21.773Z,93.37
2022-12-17T11:04:09.201Z,92.26
2022-12-17T11:07:07.012Z,91.87
2022-12-17T11:10:08.645Z,92.02
2022-12-17T11:13:02.076Z,93.32
2022-12-17T11:15:54.809Z,93.67
2022-12-17T11:18:47.311Z,94.30
2022-12-17T11:21:39.120Z,93.67
2022-12-17T11:24:29.702Z,94.40
2022-12-17T11:27:16.406Z,93.99
2022-12-17T11:30:01.959Z,93.65
2022-12-17T11:32:55.218Z,93.77
2022-12-17T11:36:01.502Z,91.92
2022-12-17T11:39:09.421Z,91.75
2022-12-17T11:42:14.153Z,92.28
2022-12-17T11:45:09.418Z,92.39
2022-12-17T11:48:04.366Z,91.75
2022-12-17T11:50:56.359Z,91.29
2022-12-17T11:54:08.100Z,91.32
2022-12-17T11:57:04.816Z,91.26
2022-12-17T11:59:57.007Z,91.96
2022-12-17T12:02:53.873Z,92.12
2022-12-17T12:05:49.814Z,91.50
2022-12-17T12:08:44.868Z,91.13
2022-12-17T12:11:51.430Z,91.41
2022-12-17T12:14:55.875Z,91.59
2022-12-17T12:17:51.569Z,92.09
2022-12-17T12:20:37.107Z,90.82
2022-12-17T12:23:25.912Z,91.22
2022-12-17T12:26:31.520Z,91.94
2022-12-17T12:29:35.990Z,92.02
2022-12-17T12:32:26.030Z,91.64
2022-12-17T12:35:13.079Z,91.27
2022-12-17T12:37:58.953Z,91.31
2022-12-17T12:40:53.779Z,90.28
2022-12-17T12:43:42.387Z,90.23
2022-12-17T12:46:34.586Z,91.04
2022-12-17T12:49:20.237Z,90.34
2022-12-17T12:52:06.387Z,91.83
2022-12-17T12:55:04.160Z,91.42
2022-12-17T12:57:54.124Z,90.61
2022-12-17T13:00:42.901Z,91.06
2022-12-17T13:03:43.840Z,91.64
2022-12-17T13:06:11.868Z,91.38
2022-12-17T13:08:39.104Z,90.78
2022-12-17T13:11:11.077Z,90.75
2022-12-17T13:13:55.645Z,90.70
2022-12-17T13:16:31.677Z,90.76
2022-12-17T13:19:03.218Z,91.31
2022-12-17T13:21:31.459Z,90.70
2022-12-17T13:23:58.895Z,91.83
2022-12-17T13:26:41.285Z,91.75
2022-12-17T13:29:13.131Z,91.47
2022-12-17T13:31:51.097Z,91.28
2022-12-17T13:34:23.197Z,91.12
2022-12-17T13:36:49.989Z,92.17
2022-12-17T13:39:25.906Z,91.47
2022-12-17T13:41:53.384Z,91.69
2022-12-17T13:44:25.297Z,91.67
2022-12-17T13:46:53.513Z,92.32
2022-12-17T13:49:20.335Z,92.02
2022-12-17T13:51:47.634Z,92.18
2022-12-17T13:54:16.120Z,93.01
2022-12-17T13:56:42.976Z,92.20
2022-12-17T13:59:20.321Z,93.18
2022-12-17T14:01:48.904Z,93.02
2022-12-17T14:04:22.924Z,93.01
2022-12-17T14:06:51.533Z,93.15
2022-12-17T14:09:19.704Z,94.16
2022-12-17T14:12:05.415Z,94.52
2022-12-17T14:14:33.827Z,94.04
2022-12-17T14:17:01.047Z,94.66
2022-12-17T14:19:29.057Z,93.33
2022-12-17T14:21:56.483Z,91.87
2022-12-17T14:24:27.066Z,92.38
2022-12-17T14:26:55.459Z,88.58
2022-12-17T14:29:23.607Z,88.61
2022-12-17T14:32:01.114Z,90.03
2022-12-17T14:34:28.002Z,91.75
2022-12-17T14:36:56.536Z,92.69
2022-12-17T14:39:26.362Z,94.20
2022-12-17T14:42:12.830Z,94.21
2022-12-17T14:44:51.146Z,95.16
2022-12-17T14:47:23.503Z,95.24
2022-12-17T14:49:55.841Z,95.36
2022-12-17T14:52:28.134Z,96.63
2022-12-17T14:54:55.197Z,96.56
2022-12-17T14:57:22.782Z,96.93
2022-12-17T14:59:50.608Z,96.61
2022-12-17T15:02:26.663Z,96.33
2022-12-17T15:04:56.416Z,97.27
2022-12-17T15:07:25.283Z,96.97
2022-12-17T15:09:53.139Z,97.68
2022-12-17T15:12:21.012Z,97.34
2022-12-17T15:14:48.112Z,97.97
2022-12-17T15:17:15.417Z,98.02
2022-12-17T15:19:42.465Z,99.09
2022-12-17T15:22:13.992Z,98.73
2022-12-17T15:24:40.840Z,99.24
2022-12-17T15:27:09.416Z,99.02
2022-12-17T15:29:36.283Z,99.67
2022-12-17T15:32:03.465Z,99.23
2022-12-17T15:34:30.336Z,99.89
2022-12-17T15:36:57.156Z,99.82
2022-12-17T15:39:23.985Z,99.75
2022-12-17T15:42:09.599Z,100.00
2022-12-17T15:44:36.395Z,100.00
2022-12-17T15:47:03.205Z,100.00
2022-12-17T15:49:30.024Z,100.00
2022-12-17T15:51:56.811Z,100.00
2022-12-17T15:54:25.084Z,100.00
2022-12-17T15:56:53.425Z,100.00
2022-12-17T15:59:20.295Z,100.00
2022-12-17T16:01:47.364Z,100.00
2022-12-17T16:04:20.296Z,100.00
2022-12-17T16:06:51.489Z,100.00
2022-12-17T16:09:18.316Z,100.00
2022-12-17T16:11:45.339Z,100.00
2022-12-17T16:14:12.160Z,100.00
2022-12-17T16:16:38.947Z,100.00
2022-12-17T16:19:05.866Z,100.00
2022-12-17T16:21:32.658Z,100.00
2022-12-17T16:23:59.583Z,100.00
2022-12-17T16:26:26.646Z,100.00
2022-12-17T16:28:53.467Z,100.00
2022-12-17T16:31:20.315Z,100.00
2022-12-17T16:33:48.116Z,100.00
2022-12-17T16:36:16.358Z,100.00
2022-12-17T16:39:01.343Z,100.00
2022-12-17T16:41:28.183Z,100.00
2022-12-17T16:43:55.145Z,100.00
2022-12-17T16:46:26.808Z,100.00
2022-12-17T16:48:54.399Z,100.00
2022-12-17T16:51:28.455Z,100.00
2022-12-17T16:53:57.090Z,100.00
2022-12-17T16:56:25.614Z,100.00
2022-12-17T16:58:52.665Z,100.00
2022-12-17T17:01:20.687Z,100.00
2022-12-17T17:03:47.822Z,100.00
2022-12-17T17:06:15.599Z,100.00
2022-12-17T17:08:42.850Z,100.00
2022-12-17T17:11:21.260Z,100.00
2022-12-17T17:13:49.528Z,100.00
2022-12-17T17:16:17.199Z,100.00
2022-12-17T17:18:44.160Z,100.00
2022-12-17T17:21:20.284Z,100.00
2022-12-17T17:23:48.393Z,100.00
2022-12-17T17:26:15.805Z,100.00
2022-12-17T17:28:42.719Z,100.00
2022-12-17T17:31:11.291Z,100.00
2022-12-17T17:33:39.496Z,100.00
2022-12-17T17:36:07.728Z,100.00
2022-12-17T17:38:35.934Z,100.00
2022-12-17T17:41:03.433Z,100.00
2022-12-17T17:43:30.492Z,100.00
2022-12-17T17:46:04.338Z,100.00
2022-12-17T17:48:34.875Z,100.00
2022-12-17T17:51:07.196Z,100.00
2022-12-17T17:53:34.426Z,100.00
2022-12-17T17:56:14.687Z,100.00
2022-12-17T17:58:42.609Z,100.00
2022-12-17T18:01:10.828Z,100.00
2022-12-17T18:03:38.056Z,100.00
2022-12-17T18:06:07.069Z,100.00
2022-12-17T18:08:35.316Z,100.00
2022-12-17T18:11:03.189Z,100.00
2022-12-17T18:13:48.463Z,100.00
2022-12-17T18:16:15.849Z,100.00
2022-12-17T18:18:42.687Z,100.00
2022-12-17T18:21:11.202Z,100.00
2022-12-17T18:23:38.217Z,100.00
2022-12-17T18:26:12.692Z,100.00
2022-12-17T18:28:42.028Z,100.00
2022-12-17T18:31:13.418Z,100.00
2022-12-17T18:33:41.747Z,100.00
2022-12-17T18:36:09.797Z,100.00
2022-12-17T18:38:37.139Z,100.00
2022-12-17T18:41:29.998Z,100.00
2022-12-17T18:43:58.438Z,100.00
2022-12-17T18:46:26.177Z,100.00
2022-12-17T18:48:53.663Z,100.00
2022-12-17T18:51:21.417Z,100.00
2022-12-17T18:53:49.048Z,100.00
2022-12-17T18:56:31.737Z,100.00
2022-12-17T18:59:02.897Z,100.00
2022-12-17T19:01:31.755Z,100.00
2022-12-17T19:04:01.179Z,100.00
2022-12-17T19:06:28.329Z,100.00
2022-12-17T19:08:55.132Z,100.00
2022-12-17T19:11:22.400Z,100.00
2022-12-17T19:13:49.738Z,100.00
2022-12-17T19:16:18.402Z,100.00
2022-12-17T19:18:45.661Z,100.00
2022-12-17T19:21:14.906Z,100.00
2022-12-17T19:23:42.099Z,100.00
2022-12-17T19:26:10.122Z,100.00
2022-12-17T19:28:37.905Z,100.00
2022-12-17T19:31:05.054Z,100.00
2022-12-17T19:33:31.899Z,100.00
2022-12-17T19:36:01.101Z,100.00
2022-12-17T19:38:28.968Z,100.00
2022-12-17T19:40:55.780Z,100.00
2022-12-17T19:43:24.672Z,100.00
2022-12-17T19:45:51.531Z,100.00
2022-12-17T19:48:18.378Z,100.00
2022-12-17T19:50:55.087Z,100.00
2022-12-17T19:53:27.063Z,100.00
2022-12-17T19:55:55.403Z,100.00
2022-12-17T19:58:23.199Z,100.00
2022-12-17T20:00:50.421Z,100.00
2022-12-17T20:03:17.879Z,100.00
2022-12-17T20:05:45.658Z,100.00
2022-12-17T20:08:12.681Z,100.00
2022-12-17T20:10:39.606Z,100.00
2022-12-17T20:13:06.504Z,100.00
2022-12-17T20:15:33.333Z,100.00
2022-12-17T20:18:00.123Z,100.00
2022-12-17T20:20:26.987Z,100.00
2022-12-17T20:22:53.765Z,100.00
2022-12-17T20:25:20.606Z,100.00
2022-12-17T20:27:47.448Z,100.00
2022-12-17T20:30:14.290Z,100.00
2022-12-17T20:32:41.056Z,100.00
2022-12-17T20:35:08.433Z,100.00
2022-12-17T20:37:35.272Z,100.00
2022-12-17T20:40:02.128Z,100.00
2022-12-17T20:42:28.940Z,100.00
2022-12-17T20:44:56.912Z,100.00
2022-12-17T20:47:23.780Z,100.00
2022-12-17T20:49:50.571Z,100.00
2022-12-17T20:52:17.527Z,100.00
2022-12-17T20:54:44.838Z,100.00
2022-12-17T20:57:11.767Z,100.00
2022-12-17T20:59:38.631Z,100.00
2022-12-17T21:02:05.620Z,100.00
2022-12-17T21:04:32.516Z,100.00
2022-12-17T21:06:59.322Z,100.00
2022-12-17T21:09:26.134Z,100.00
2022-12-17T21:11:53.106Z,100.00
2022-12-17T21:14:19.908Z,100.00
2022-12-17T21:16:46.809Z,100.00
2022-12-17T21:19:15.502Z,100.00
2022-12-17T21:21:42.490Z,100.00
2022-12-17T21:24:09.931Z,100.00
2022-12-17T21:26:38.576Z,100.00
2022-12-17T21:29:06.300Z,100.00
2022-12-17T21:31:35.342Z,100.00
2022-12-17T21:34:03.722Z,100.00
2022-12-17T21:36:32.238Z,100.00
2022-12-17T21:38:59.310Z,100.00
2022-12-17T21:41:27.814Z,100.00
2022-12-17T21:43:59.118Z,100.00
2022-12-17T21:46:29.606Z,100.00
2022-12-17T21:48:57.570Z,100.00
2022-12-17T21:51:24.449Z,100.00
2022-12-17T21:53:55.856Z,100.00
2022-12-17T21:56:23.246Z,100.00
2022-12-17T22:03:06.103Z,100.00
2022-12-17T22:05:37.941Z,100.00
2022-12-17T22:08:04.971Z,100.00
2022-12-17T22:10:35.928Z,100.00
2022-12-17T22:13:29.688Z,100.00
2022-12-17T22:15:56.615Z,100.00
2022-12-17T22:18:24.922Z,100.00
2022-12-17T22:20:58.453Z,100.00
2022-12-17T22:23:25.585Z,100.00
2022-12-17T22:25:52.812Z,100.00
2022-12-17T22:28:19.659Z,100.00
2022-12-17T22:31:05.341Z,100.00
2022-12-17T22:33:56.769Z,100.00
2022-12-17T22:38:48.935Z,100.00
2022-12-17T22:44:33.847Z,100.00
2022-12-17T22:44:39.039Z,100.00
2022-12-17T22:45:09.757Z,100.00
2022-12-17T22:47:37.756Z,100.00
2022-12-17T22:50:04.776Z,100.00
2022-12-17T22:52:32.512Z,100.00
2022-12-17T22:54:59.516Z,100.00
2022-12-17T22:57:36.204Z,100.00
2022-12-17T23:00:07.331Z,100.00
2022-12-17T23:02:34.198Z,100.00
2022-12-17T23:05:01.044Z,100.00
2022-12-17T23:07:31.752Z,100.00
2022-12-17T23:09:59.004Z,100.00
2022-12-17T23:12:44.548Z,100.00
2022-12-17T23:15:11.404Z,100.00
2022-12-17T23:17:38.226Z,100.00
2022-12-17T23:20:05.286Z,100.00
2022-12-17T23:22:32.103Z,100.00
2022-12-17T23:24:58.935Z,100.00
2022-12-17T23:27:25.850Z,100.00
2022-12-17T23:29:52.664Z,100.00
2022-12-17T23:32:19.584Z,100.00
2022-12-17T23:34:46.397Z,100.00
2022-12-17T23:37:13.204Z,100.00
2022-12-17T23:39:40.066Z,100.00
2022-12-17T23:42:06.988Z,100.00
2022-12-17T23:44:33.801Z,100.00
2022-12-17T23:47:00.723Z,100.00
2022-12-17T23:49:27.544Z,100.00
2022-12-17T23:51:54.401Z,100.00
2022-12-17T23:54:21.224Z,100.00
2022-12-17T23:56:48.072Z,100.00
2022-12-17T23:59:14.891Z,100.00
